Time;durP1;ratioP1;P1;durP2;ratioP2;P2;SDS_P1;SDS_P2;PMS_P1;PMS_P2;Temp;Humidity;BMP_temperature;BMP_pressure;BME280_temperature;BME280_humidity;BME280_pressure;Samples;Min_cycle;Max_cycle;Signal;HPM_P1;HPM_P2
2023/03/12 00:02:46;;;;;;;7.17;5.23;;;4.00;99.90;;;;;;10078390;29;20248;-84
2023/03/12 00:07:49;;;;;;;6.50;4.07;;;5.30;99.90;;;;;;10080622;29;20797;-85
2023/03/12 00:12:52;;;;;;;4.43;3.60;;;4.70;99.90;;;;;;10069744;29;20309;-84
2023/03/12 00:17:54;;;;;;;7.50;4.43;;;6.10;99.90;;;;;;10084773;29;20344;-85
2023/03/12 00:22:57;;;;;;;6.70;4.93;;;4.80;99.90;;;;;;10075312;29;20249;-84
2023/03/12 00:28:00;;;;;;;6.63;3.83;;;5.90;99.90;;;;;;10070882;29;20259;-84
2023/03/12 00:33:02;;;;;;;4.97;3.60;;;4.80;99.90;;;;;;10072849;29;21050;-84
2023/03/12 00:38:05;;;;;;;5.27;4.40;;;3.90;99.90;;;;;;10074196;29;20293;-84
2023/03/12 00:43:08;;;;;;;6.03;4.43;;;4.30;99.90;;;;;;10082041;29;20248;-84
2023/03/12 00:48:10;;;;;;;8.00;4.40;;;3.60;99.90;;;;;;10073269;29;20320;-84
2023/03/12 00:53:13;;;;;;;13.03;4.30;;;4.00;99.90;;;;;;10080237;29;20619;-84
2023/03/12 00:58:15;;;;;;;5.20;3.43;;;4.10;99.90;;;;;;10086550;29;20312;-84
2023/03/12 01:03:18;;;;;;;5.50;3.83;;;2.90;99.90;;;;;;10071405;29;20297;-84
2023/03/12 01:08:22;;;;;;;6.00;3.20;;;5.40;99.90;;;;;;10083088;29;20268;-84
2023/03/12 01:13:25;;;;;;;4.23;3.13;;;3.80;99.90;;;;;;10079085;29;20297;-84
2023/03/12 01:18:28;;;;;;;6.13;3.73;;;3.90;99.90;;;;;;10074565;29;20333;-84
2023/03/12 01:23:31;;;;;;;7.87;4.40;;;6.40;99.90;;;;;;10068254;29;20297;-84
2023/03/12 01:28:34;;;;;;;5.83;4.10;;;4.50;98.90;;;;;;10085172;29;20638;-84
2023/03/12 01:33:36;;;;;;;5.17;3.90;;;4.90;99.90;;;;;;10077659;29;20236;-84
2023/03/12 01:38:39;;;;;;;6.50;4.23;;;4.50;99.90;;;;;;10079375;29;20301;-84
2023/03/12 01:43:42;;;;;;;5.93;3.87;;;6.10;99.90;;;;;;10090490;29;20300;-84
2023/03/12 01:48:50;;;;;;;5.47;3.90;;;5.50;99.90;;;;;;10082246;29;20260;-84
2023/03/12 01:53:56;;;;;;;4.30;3.03;;;5.70;99.90;;;;;;10089753;29;20250;-84
2023/03/12 01:59:05;;;;;;;5.10;3.37;;;6.30;99.90;;;;;;10085342;29;20244;-83
2023/03/12 02:04:08;;;;;;;8.00;3.50;;;6.20;99.90;;;;;;10076038;29;20244;-84
2023/03/12 02:09:12;;;;;;;8.47;3.77;;;6.30;99.20;;;;;;10074344;29;20714;-84
2023/03/12 02:14:15;;;;;;;4.67;3.20;;;6.20;99.90;;;;;;10080657;29;20275;-84
2023/03/12 02:19:29;;;;;;;3.73;3.33;;;6.50;99.90;;;;;;10084707;29;20261;-84
2023/03/12 02:24:34;;;;;;;4.70;3.13;;;8.00;99.90;;;;;;10079592;29;20252;-84
2023/03/12 02:29:42;;;;;;;5.10;3.40;;;8.10;99.90;;;;;;10090010;29;20276;-84
2023/03/12 02:34:46;;;;;;;4.00;3.40;;;7.60;99.90;;;;;;10081310;29;20244;-84
2023/03/12 02:39:56;;;;;;;4.60;3.20;;;6.90;99.90;;;;;;10078061;29;20297;-84
2023/03/12 02:45:00;;;;;;;6.60;3.83;;;6.20;99.90;;;;;;10084557;29;20234;-84
2023/03/12 02:50:03;;;;;;;5.30;2.17;;;5.70;99.90;;;;;;10076647;29;20686;-84
2023/03/12 02:55:07;;;;;;;2.90;2.03;;;5.70;99.90;;;;;;10096670;29;20304;-84
2023/03/12 03:00:12;;;;;;;4.43;2.60;;;4.50;99.90;;;;;;10079486;29;20253;-84
2023/03/12 03:05:20;;;;;;;3.20;2.47;;;6.00;99.90;;;;;;10076990;29;20686;-84
2023/03/12 03:10:23;;;;;;;2.73;2.23;;;5.80;99.90;;;;;;10068839;29;20672;-84
2023/03/12 03:15:26;;;;;;;3.27;2.30;;;8.00;99.90;;;;;;10084410;29;20300;-84
2023/03/12 03:20:30;;;;;;;4.90;2.43;;;8.40;99.90;;;;;;10079340;29;20329;-84
2023/03/12 03:25:33;;;;;;;3.10;2.00;;;6.70;99.90;;;;;;10083166;29;20257;-83
2023/03/12 03:30:37;;;;;;;5.57;3.07;;;6.90;93.70;;;;;;10079694;29;20706;-84
2023/03/12 03:35:41;;;;;;;5.17;3.37;;;6.40;99.90;;;;;;10087681;29;20297;-84
2023/03/12 03:40:44;;;;;;;4.47;2.63;;;7.00;99.90;;;;;;10087836;29;20300;-84
2023/03/12 03:45:48;;;;;;;3.83;2.73;;;7.30;99.90;;;;;;10075406;29;20309;-84
2023/03/12 03:50:51;;;;;;;6.03;2.67;;;5.90;99.90;;;;;;10076221;29;20262;-83
2023/03/12 03:55:53;;;;;;;3.13;2.80;;;6.30;99.90;;;;;;10084645;29;20312;-84
2023/03/12 04:00:56;;;;;;;4.33;2.10;;;5.40;99.90;;;;;;10083327;29;20244;-84
2023/03/12 04:06:01;;;;;;;6.40;2.43;;;5.10;96.90;;;;;;10067712;29;20240;-84
2023/03/12 04:11:11;;;;;;;3.53;2.30;;;5.30;99.90;;;;;;10082934;29;21001;-84
2023/03/12 04:16:14;;;;;;;5.70;1.97;;;6.00;99.90;;;;;;10080322;29;20272;-83
2023/03/12 04:21:17;;;;;;;5.17;2.27;;;5.10;95.60;;;;;;10078512;29;20245;-84
2023/03/12 04:26:23;;;;;;;3.33;2.67;;;6.30;99.90;;;;;;10073350;29;20252;-84
2023/03/12 04:31:26;;;;;;;3.47;3.17;;;7.50;99.90;;;;;;10070285;29;20735;-84
2023/03/12 04:36:29;;;;;;;4.37;1.70;;;7.70;99.90;;;;;;10087392;29;20281;-84
2023/03/12 04:41:34;;;;;;;7.97;2.67;;;4.90;95.60;;;;;;10068442;29;20245;-84
2023/03/12 04:46:42;;;;;;;2.60;2.30;;;5.10;99.90;;;;;;10055111;29;20241;-84
2023/03/12 04:51:48;;;;;;;3.77;2.10;;;5.50;99.90;;;;;;10071293;29;20264;-84
2023/03/12 04:56:53;;;;;;;3.17;2.50;;;4.70;99.90;;;;;;10077526;29;20249;-84
2023/03/12 05:01:57;;;;;;;3.43;2.07;;;3.20;99.90;;;;;;10083332;29;21013;-84
2023/03/12 05:07:03;;;;;;;4.60;3.27;;;3.80;99.90;;;;;;10073613;29;20695;-84
2023/03/12 05:12:06;;;;;;;2.07;1.70;;;3.00;99.90;;;;;;10072936;29;20248;-84
2023/03/12 05:17:09;;;;;;;6.80;2.17;;;3.90;99.90;;;;;;10084525;29;20335;-84
2023/03/12 05:22:11;;;;;;;6.27;2.77;;;2.80;99.90;;;;;;10078879;29;20248;-84
2023/03/12 05:27:14;;;;;;;3.37;2.30;;;3.90;99.90;;;;;;10077727;29;20320;-84
2023/03/12 05:32:17;;;;;;;7.63;2.37;;;2.70;99.90;;;;;;10076685;29;20245;-84
2023/03/12 05:37:20;;;;;;;4.07;2.27;;;2.30;99.90;;;;;;10096276;29;20740;-84
2023/03/12 05:42:24;;;;;;;3.10;1.70;;;3.10;99.90;;;;;;10097818;29;20244;-84
2023/03/12 05:47:29;;;;;;;3.43;2.07;;;1.80;99.90;;;;;;10085167;29;20699;-84
2023/03/12 05:52:32;;;;;;;4.83;3.10;;;1.30;99.90;;;;;;10085141;29;20829;-84
2023/03/12 05:57:35;;;;;;;5.07;2.43;;;2.00;99.90;;;;;;10084503;29;20740;-83
2023/03/12 06:02:37;;;;;;;2.90;2.37;;;1.30;99.90;;;;;;10085268;29;20632;-83
2023/03/12 06:07:40;;;;;;;3.80;2.63;;;1.30;99.90;;;;;;10077811;29;20268;-84
2023/03/12 06:12:43;;;;;;;3.57;2.43;;;3.80;99.90;;;;;;10084102;29;20316;-84
2023/03/12 06:17:46;;;;;;;10.63;2.37;;;2.80;99.90;;;;;;10089039;29;20359;-84
2023/03/12 06:22:48;;;;;;;5.10;2.57;;;3.40;99.90;;;;;;10095620;29;20248;-84
2023/03/12 06:27:51;;;;;;;5.90;2.77;;;4.00;99.90;;;;;;10104013;29;20315;-84
2023/03/12 06:32:54;;;;;;;5.80;2.67;;;4.80;99.90;;;;;;10103365;29;20318;-84
2023/03/12 06:37:56;;;;;;;4.10;2.33;;;5.30;99.90;;;;;;10105423;29;20684;-84
2023/03/12 06:42:59;;;;;;;4.03;3.10;;;4.50;99.90;;;;;;10109815;29;20240;-84
2023/03/12 06:48:01;;;;;;;5.67;2.83;;;4.90;99.90;;;;;;10095948;29;20731;-84
2023/03/12 06:53:04;;;;;;;5.10;2.40;;;4.70;99.90;;;;;;10104848;29;21215;-85
2023/03/12 06:58:06;;;;;;;3.93;2.53;;;4.50;99.90;;;;;;10106186;29;20271;-85
2023/03/12 07:03:09;;;;;;;3.20;2.27;;;4.40;99.90;;;;;;10095773;29;20399;-85
2023/03/12 07:08:12;;;;;;;4.00;2.23;;;4.40;99.90;;;;;;10098562;29;20270;-85
2023/03/12 07:13:15;;;;;;;4.60;2.97;;;5.40;99.90;;;;;;10095420;29;20787;-85
2023/03/12 07:18:17;;;;;;;3.67;2.93;;;3.70;99.90;;;;;;10101485;29;20264;-85
2023/03/12 07:23:20;;;;;;;3.90;2.40;;;3.90;99.90;;;;;;10102938;29;20240;-85
2023/03/12 07:28:23;;;;;;;2.40;1.93;;;5.60;99.90;;;;;;10100293;29;20311;-84
2023/03/12 07:33:25;;;;;;;6.40;2.07;;;4.60;99.90;;;;;;10101417;29;20240;-83
2023/03/12 07:38:28;;;;;;;3.17;2.60;;;4.60;99.90;;;;;;10105498;29;20806;-85
2023/03/12 07:43:31;;;;;;;3.90;2.30;;;6.50;99.90;;;;;;10083819;29;20306;-84
2023/03/12 07:48:34;;;;;;;6.03;2.63;;;5.30;98.80;;;;;;10089719;29;20261;-84
2023/03/12 07:53:37;;;;;;;2.83;2.43;;;6.00;99.90;;;;;;10086975;29;20248;-84
2023/03/12 07:58:40;;;;;;;6.03;2.03;;;5.50;99.20;;;;;;10088908;29;20281;-84
2023/03/12 08:03:43;;;;;;;3.73;2.13;;;6.10;99.90;;;;;;10075994;29;20838;-85
2023/03/12 08:08:45;;;;;;;3.63;2.17;;;8.10;99.90;;;;;;10073155;29;20261;-84
2023/03/12 08:13:48;;;;;;;3.90;2.03;;;7.50;99.90;;;;;;10060848;29;20253;-83
2023/03/12 08:18:51;;;;;;;4.10;1.87;;;7.50;99.90;;;;;;10070204;29;20277;-83
2023/03/12 08:23:53;;;;;;;5.50;1.87;;;8.00;92.00;;;;;;10068693;29;20695;-82
2023/03/12 08:28:59;;;;;;;2.20;1.50;;;5.70;80.80;;;;;;10083521;29;20298;-83
2023/03/12 08:34:01;;;;;;;3.47;1.87;;;4.40;94.20;;;;;;10071194;29;20289;-84
2023/03/12 08:39:04;;;;;;;3.30;1.43;;;3.60;93.80;;;;;;10075589;29;20245;-83
2023/03/12 08:44:06;;;;;;;3.93;1.13;;;3.60;99.90;;;;;;10078369;29;20620;-84
2023/03/12 08:49:09;;;;;;;4.13;1.97;;;4.20;95.60;;;;;;10076584;29;20716;-83
2023/03/12 08:54:11;;;;;;;3.03;1.50;;;5.40;99.90;;;;;;10080537;29;20233;-83
2023/03/12 08:59:14;;;;;;;1.67;1.30;;;5.20;99.90;;;;;;10075169;29;20765;-83
2023/03/12 09:04:16;;;;;;;2.40;1.40;;;5.60;98.40;;;;;;10078425;29;20711;-83
2023/03/12 09:09:19;;;;;;;2.43;1.00;;;6.50;99.90;;;;;;10083137;29;20264;-83
2023/03/12 09:14:22;;;;;;;3.20;1.70;;;6.10;78.60;;;;;;10076458;29;20298;-83
2023/03/12 09:19:44;;;;;;;5.50;1.30;;;7.40;99.90;;;;;;10075215;29;20317;-83
2023/03/12 09:24:47;;;;;;;7.00;2.00;;;5.20;62.20;;;;;;10072490;29;20252;-83
2023/03/12 09:29:52;;;;;;;6.97;2.27;;;4.90;87.00;;;;;;10064075;29;20272;-83
2023/03/12 09:35:02;;;;;;;4.40;1.63;;;6.10;72.70;;;;;;10075459;29;21298;-84
2023/03/12 09:40:08;;;;;;;6.17;1.83;;;7.70;99.90;;;;;;10060312;29;20260;-84
2023/03/12 09:45:27;;;;;;;6.30;1.87;;;7.30;92.30;;;;;;10082676;29;20288;-84
2023/03/12 09:50:32;;;;;;;4.23;1.87;;;6.90;71.20;;;;;;10050847;29;20260;-83
2023/03/12 09:55:38;;;;;;;7.63;1.77;;;6.20;91.40;;;;;;10050471;29;20695;-84
2023/03/12 10:00:41;;;;;;;4.13;1.40;;;8.50;99.90;;;;;;10064702;29;20252;-83
2023/03/12 10:06:03;;;;;;;4.07;1.50;;;8.90;99.90;;;;;;10063679;29;20293;-85
2023/03/12 10:11:36;;;;;;;2.80;1.90;;;8.80;85.00;;;;;;9727257;29;10001081;-83
2023/03/12 10:16:45;;;;;;;2.67;1.33;;;8.10;95.90;;;;;;10084807;29;20257;-82
2023/03/12 10:21:56;;;;;;;5.90;2.87;;;9.80;99.90;;;;;;10079480;29;20648;-82
2023/03/12 10:27:00;;;;;;;1.97;1.67;;;8.10;81.90;;;;;;10073144;29;20247;-83
2023/03/12 10:32:44;;;;;;;2.57;1.50;;;9.20;89.00;;;;;;10062242;29;20268;-83
2023/03/12 10:37:52;;;;;;;4.53;1.47;;;9.00;52.80;;;;;;10087563;29;20248;-83
2023/03/12 10:42:55;;;;;;;7.43;1.47;;;8.30;80.90;;;;;;10083286;29;20269;-83
2023/03/12 10:48:06;;;;;;;2.90;1.37;;;9.60;44.50;;;;;;10094773;29;20993;-82
2023/03/12 10:53:28;;;;;;;4.10;1.07;;;7.80;56.00;;;;;;10093317;29;20260;-83
2023/03/12 10:58:52;;;;;;;5.93;2.43;;;7.50;65.10;;;;;;10094620;29;20308;-83
2023/03/12 11:04:26;;;;;;;2.40;1.10;;;7.20;55.90;;;;;;10094482;29;20245;-82
2023/03/12 11:09:31;;;;;;;4.23;1.83;;;9.10;73.90;;;;;;10083804;29;20297;-83
2023/03/12 11:14:45;;;;;;;3.60;1.33;;;9.10;55.00;;;;;;10093112;29;20687;-83
2023/03/12 11:19:48;;;;;;;1.80;1.17;;;9.00;52.50;;;;;;10093645;29;20277;-83
2023/03/12 11:24:58;;;;;;;5.47;2.27;;;9.70;88.50;;;;;;10093713;29;20249;-83
2023/03/12 11:30:04;;;;;;;1.27;1.10;;;10.90;72.70;;;;;;10093178;29;20257;-83
2023/03/12 11:35:12;;;;;;;4.03;1.80;;;11.00;75.40;;;;;;10093234;29;20375;-83
2023/03/12 11:40:48;;;;;;;4.27;1.43;;;8.80;38.80;;;;;;10091460;29;20308;-82
2023/03/12 11:46:18;;;;;;;4.40;2.13;;;10.40;91.80;;;;;;10093092;29;20637;-82
2023/03/12 11:51:42;;;;;;;5.33;2.03;;;9.30;50.20;;;;;;10092426;29;20281;-82
2023/03/12 11:56:57;;;;;;;2.13;1.37;;;9.10;55.60;;;;;;10090746;29;20242;-83
2023/03/12 12:02:49;;;;;;;7.33;1.43;;;8.70;96.10;;;;;;10074850;29;20257;-81
2023/03/12 12:08:07;;;;;;;5.63;2.97;;;9.90;57.90;;;;;;10092515;29;20625;-82
2023/03/12 12:13:31;;;;;;;4.57;2.10;;;7.80;49.50;;;;;;10070500;29;20667;-82
2023/03/12 12:18:45;;;;;;;5.30;1.83;;;8.20;60.80;;;;;;10079247;29;20281;-82
2023/03/12 12:24:00;;;;;;;3.73;1.53;;;9.50;66.00;;;;;;10082325;29;20698;-82
2023/03/12 12:29:14;;;;;;;5.53;1.90;;;10.40;72.80;;;;;;10077007;29;20299;-82
2023/03/12 12:34:23;;;;;;;3.70;1.50;;;9.60;50.70;;;;;;10077848;29;20241;-82
2023/03/12 12:39:37;;;;;;;2.63;1.03;;;8.90;87.30;;;;;;9743242;29;9999671;-82
2023/03/12 12:44:45;;;;;;;6.97;2.13;;;10.00;83.20;;;;;;10080540;29;20253;-82
2023/03/12 12:49:53;;;;;;;2.97;1.77;;;9.10;49.20;;;;;;10092272;29;20345;-82
2023/03/12 12:55:28;;;;;;;3.80;2.20;;;9.70;86.70;;;;;;10078015;29;20233;-82
2023/03/12 13:00:57;;;;;;;3.27;1.30;;;9.80;46.40;;;;;;10070716;29;20234;-82
2023/03/12 13:06:03;;;;;;;5.53;2.20;;;8.40;54.30;;;;;;10074248;29;20752;-86
2023/03/12 13:11:23;;;;;;;6.00;2.23;;;7.80;42.50;;;;;;10076954;29;20268;-85
2023/03/12 13:16:34;;;;;;;3.83;1.10;;;6.60;55.10;;;;;;10078740;29;20237;-86
2023/03/12 13:22:12;;;;;;;5.17;1.60;;;9.10;52.10;;;;;;10077667;29;20241;-85
2023/03/12 13:27:39;;;;;;;7.67;1.87;;;9.20;59.90;;;;;;10063532;29;20313;-86
2023/03/12 13:32:47;;;;;;;5.10;1.57;;;10.50;48.30;;;;;;10105588;29;20257;-86
2023/03/12 13:37:50;;;;;;;1.07;0.73;;;11.50;46.10;;;;;;10080024;29;20311;-86
2023/03/12 13:43:13;;;;;;;8.33;1.80;;;11.80;44.00;;;;;;10058722;29;20779;-86
2023/03/12 13:48:19;;;;;;;2.27;1.30;;;11.70;38.20;;;;;;10057550;29;20320;-86
2023/03/12 13:53:27;;;;;;;1.47;0.97;;;12.20;38.10;;;;;;10057563;29;20292;-86
2023/03/12 13:58:30;;;;;;;5.87;2.17;;;11.80;38.60;;;;;;10102040;29;20245;-86
2023/03/12 14:03:39;;;;;;;1.27;0.67;;;12.20;38.20;;;;;;10103974;29;20291;-85
2023/03/12 14:09:22;;;;;;;3.00;1.17;;;12.50;44.60;;;;;;10068481;29;20307;-85
2023/03/12 14:14:47;;;;;;;3.03;1.43;;;12.60;42.20;;;;;;10101926;29;20240;-85
2023/03/12 14:20:17;;;;;;;2.13;1.07;;;12.20;43.40;;;;;;10103619;29;20327;-85
2023/03/12 14:25:38;;;;;;;3.50;1.37;;;12.00;60.40;;;;;;10094382;29;20309;-85
2023/03/12 14:31:04;;;;;;;6.30;1.80;;;11.70;45.10;;;;;;10077448;29;20321;-86
2023/03/12 14:36:13;;;;;;;6.87;1.93;;;11.10;25.20;;;;;;9738810;29;10000553;-85
2023/03/12 14:41:21;;;;;;;5.93;1.97;;;9.20;59.90;;;;;;10072862;29;20271;-86
2023/03/12 14:46:24;;;;;;;5.33;1.90;;;10.70;51.00;;;;;;10053706;29;20741;-86
2023/03/12 14:51:29;;;;;;;4.93;2.50;;;9.50;43.70;;;;;;10055723;29;21254;-86
2023/03/12 14:56:34;;;;;;;7.40;3.00;;;10.10;39.30;;;;;;10085036;29;20693;-86
2023/03/12 15:01:38;;;;;;;4.80;2.40;;;10.40;37.70;;;;;;10083647;29;20253;-85
2023/03/12 15:06:57;;;;;;;9.87;3.90;;;9.90;35.00;;;;;;10070139;29;20325;-85
2023/03/12 15:12:17;;;;;;;6.40;2.00;;;9.40;38.50;;;;;;10058861;29;20343;-86
2023/03/12 15:17:22;;;;;;;7.07;2.50;;;11.00;50.20;;;;;;10091308;29;20265;-85
2023/03/12 15:22:28;;;;;;;4.40;1.70;;;11.60;46.00;;;;;;10061791;29;20246;-86
2023/03/12 15:27:32;;;;;;;7.47;3.30;;;11.50;47.80;;;;;;10070422;29;20305;-86
2023/03/12 15:32:35;;;;;;;4.23;2.13;;;10.90;38.70;;;;;;10066710;29;20657;-85
2023/03/12 15:37:39;;;;;;;8.57;4.10;;;10.40;53.40;;;;;;10089230;29;20244;-85
2023/03/12 15:42:45;;;;;;;9.07;4.30;;;9.90;39.40;;;;;;10083463;29;20250;-86
2023/03/12 15:47:50;;;;;;;4.27;1.80;;;9.90;45.60;;;;;;10074848;29;20250;-85
2023/03/12 15:53:02;;;;;;;3.57;1.97;;;10.40;58.00;;;;;;10084803;29;20325;-85
2023/03/12 15:58:35;;;;;;;6.37;1.87;;;10.90;52.00;;;;;;10062872;29;20260;-85
2023/03/12 16:03:39;;;;;;;8.13;3.03;;;10.60;49.60;;;;;;10061908;29;20804;-86
2023/03/12 16:08:51;;;;;;;6.33;2.73;;;9.90;50.10;;;;;;10074072;29;20245;-85
2023/03/12 16:14:16;;;;;;;17.97;8.63;;;9.60;76.50;;;;;;10051344;29;20346;-85
2023/03/12 16:19:21;;;;;;;11.93;6.50;;;7.20;48.40;;;;;;10050102;29;20264;-85
2023/03/12 16:24:24;;;;;;;23.77;10.90;;;;;;;;;;10088141;29;20309;-85
2023/03/12 16:29:32;;;;;;;22.87;10.90;;;5.50;68.60;;;;;;10087970;29;20240;-85
2023/03/12 16:34:34;;;;;;;22.67;12.63;;;5.50;91.70;;;;;;10066082;29;20241;-89
2023/03/12 16:39:37;;;;;;;21.97;11.53;;;5.30;85.50;;;;;;10087250;29;20321;-87
2023/03/12 16:44:41;;;;;;;44.87;25.57;;;;;;;;;;10088969;29;20667;-86
2023/03/12 16:49:46;;;;;;;60.63;36.00;;;;;;;;;;10083726;29;20645;-87
2023/03/12 16:54:49;;;;;;;51.47;28.33;;;;;;;;;;10067732;29;20242;-87
2023/03/12 16:59:53;;;;;;;32.70;21.70;;;4.30;94.30;;;;;;10085352;29;20763;-86
2023/03/12 17:04:55;;;;;;;24.10;12.00;;;4.10;95.70;;;;;;10083590;29;20261;-86
2023/03/12 17:09:58;;;;;;;21.67;10.60;;;4.00;97.60;;;;;;10079639;29;20269;-86
2023/03/12 17:15:03;;;;;;;18.10;10.80;;;3.90;99.00;;;;;;10055960;29;21052;-86
2023/03/12 17:20:09;;;;;;;23.97;13.33;;;4.00;99.90;;;;;;10074055;29;20276;-87
2023/03/12 17:25:24;;;;;;;37.43;17.57;;;3.80;99.90;;;;;;10101244;29;20303;-87
2023/03/12 17:30:28;;;;;;;24.67;14.57;;;3.80;99.90;;;;;;10097563;29;20293;-87
2023/03/12 17:35:32;;;;;;;29.87;16.27;;;3.70;99.90;;;;;;10103538;29;20698;-86
2023/03/12 17:40:39;;;;;;;31.47;17.30;;;3.60;99.90;;;;;;10081809;29;20320;-87
2023/03/12 17:45:42;;;;;;;28.30;16.27;;;3.60;99.90;;;;;;10086321;29;20249;-87
2023/03/12 17:50:44;;;;;;;29.00;13.63;;;3.50;99.90;;;;;;10089770;29;20597;-87
2023/03/12 17:55:47;;;;;;;19.40;10.67;;;3.50;99.90;;;;;;10089292;29;20250;-86
2023/03/12 18:00:49;;;;;;;17.87;9.93;;;3.40;99.90;;;;;;10087147;29;20646;-87
2023/03/12 18:05:52;;;;;;;20.17;9.93;;;3.40;99.90;;;;;;10085077;29;20234;-87
2023/03/12 18:10:55;;;;;;;19.63;12.57;;;3.50;99.90;;;;;;10085563;29;20311;-87
2023/03/12 18:15:58;;;;;;;22.60;11.57;;;3.50;99.90;;;;;;10070417;29;20315;-87
2023/03/12 18:21:00;;;;;;;20.30;13.43;;;3.30;99.90;;;;;;10084692;29;20293;-87
2023/03/12 18:26:04;;;;;;;26.63;14.80;;;3.40;99.90;;;;;;10079919;29;20237;-87
2023/03/12 18:31:07;;;;;;;19.00;11.13;;;3.40;99.90;;;;;;10079897;29;20269;-87
2023/03/12 18:36:10;;;;;;;15.60;10.70;;;3.30;99.90;;;;;;10087852;29;20244;-88
2023/03/12 18:41:13;;;;;;;19.67;9.60;;;3.40;99.90;;;;;;10088477;29;20249;-87
2023/03/12 18:46:17;;;;;;;14.93;9.20;;;3.40;99.90;;;;;;10094278;29;20278;-87
2023/03/12 18:51:20;;;;;;;14.00;7.53;;;3.40;99.90;;;;;;10092742;29;20653;-87
2023/03/12 18:56:23;;;;;;;17.33;9.53;;;3.50;99.90;;;;;;10089000;29;20244;-87
2023/03/12 19:01:25;;;;;;;14.60;10.60;;;3.40;99.90;;;;;;10093638;29;20645;-87
2023/03/12 19:06:28;;;;;;;14.83;9.10;;;3.40;99.90;;;;;;10087104;29;20257;-87
2023/03/12 19:11:42;;;;;;;16.60;9.03;;;3.30;99.90;;;;;;10094719;29;20734;-86
2023/03/12 19:16:44;;;;;;;13.47;8.37;;;3.40;99.90;;;;;;10082835;29;20268;-87
2023/03/12 19:21:47;;;;;;;14.03;8.97;;;3.30;99.90;;;;;;10086150;29;20241;-86
2023/03/12 19:26:50;;;;;;;17.93;9.00;;;3.30;99.90;;;;;;10078757;29;20318;-87
2023/03/12 19:31:53;;;;;;;18.53;10.13;;;3.30;99.90;;;;;;10066319;29;20277;-86
2023/03/12 19:36:56;;;;;;;20.60;11.13;;;3.40;99.90;;;;;;10067297;29;20297;-86
2023/03/12 19:41:58;;;;;;;29.83;18.33;;;3.50;99.90;;;;;;10092681;29;20257;-87
2023/03/12 19:47:05;;;;;;;23.43;15.47;;;3.60;99.90;;;;;;10076791;29;20245;-86
2023/03/12 19:52:09;;;;;;;12.40;7.97;;;3.40;99.90;;;;;;10085269;29;20324;-86
2023/03/12 19:57:11;;;;;;;12.17;5.67;;;3.50;99.90;;;;;;10094033;29;20270;-86
2023/03/12 20:02:14;;;;;;;10.60;6.60;;;3.80;99.90;;;;;;10093007;29;20650;-86
2023/03/12 20:07:17;;;;;;;19.17;10.07;;;3.90;99.90;;;;;;10065021;29;20715;-86
2023/03/12 20:12:19;;;;;;;12.67;7.27;;;3.80;99.90;;;;;;10068999;29;20269;-86
2023/03/12 20:17:22;;;;;;;13.67;7.83;;;3.70;99.90;;;;;;10093993;29;20728;-86
2023/03/12 20:22:25;;;;;;;16.87;10.60;;;3.70;99.90;;;;;;10084434;29;20244;-86
2023/03/12 20:27:27;;;;;;;15.10;9.90;;;3.60;99.90;;;;;;10079974;29;20258;-86
2023/03/12 20:32:30;;;;;;;12.07;8.43;;;3.60;99.90;;;;;;10094429;29;20721;-86
2023/03/12 20:37:32;;;;;;;15.43;8.47;;;3.50;99.90;;;;;;10075229;29;20228;-86
2023/03/12 20:42:35;;;;;;;14.00;7.83;;;3.40;99.90;;;;;;10056666;29;20705;-86
2023/03/12 20:47:39;;;;;;;19.80;10.10;;;3.40;99.90;;;;;;10084770;29;20265;-86
2023/03/12 20:52:43;;;;;;;15.03;8.67;;;3.40;99.90;;;;;;10093353;29;20252;-86
2023/03/12 20:57:46;;;;;;;15.70;8.77;;;3.40;99.90;;;;;;10093872;29;20269;-86
2023/03/12 21:02:48;;;;;;;13.87;8.03;;;3.40;99.90;;;;;;10092775;29;20220;-87
2023/03/12 21:07:52;;;;;;;17.20;7.83;;;3.40;99.90;;;;;;10063926;29;20290;-86
2023/03/12 21:12:55;;;;;;;13.70;6.87;;;3.50;99.90;;;;;;10066253;29;20630;-86
2023/03/12 21:17:57;;;;;;;13.40;6.70;;;3.40;99.90;;;;;;10069844;29;20240;-86
2023/03/12 21:23:00;;;;;;;8.27;4.77;;;3.30;99.90;;;;;;10094143;29;20717;-86
2023/03/12 21:28:05;;;;;;;9.13;5.07;;;3.20;99.90;;;;;;10080908;29;20221;-86
2023/03/12 21:33:07;;;;;;;11.43;6.10;;;3.20;99.90;;;;;;10055181;29;20297;-86
2023/03/12 21:38:10;;;;;;;10.47;5.63;;;3.10;99.90;;;;;;10055869;29;20209;-86
2023/03/12 21:43:13;;;;;;;10.57;6.33;;;3.00;99.90;;;;;;10107590;29;20642;-86
2023/03/12 21:48:16;;;;;;;12.63;6.20;;;2.90;99.90;;;;;;10080757;29;20221;-86
2023/03/12 21:53:18;;;;;;;9.70;7.00;;;2.80;99.90;;;;;;10078352;29;20573;-86
2023/03/12 21:58:26;;;;;;;8.67;5.60;;;2.80;99.90;;;;;;10090205;29;20213;-87
2023/03/12 22:03:29;;;;;;;10.20;6.07;;;2.70;99.90;;;;;;10108573;29;20272;-86
2023/03/12 22:08:32;;;;;;;11.43;7.23;;;2.80;99.90;;;;;;10119282;29;20621;-86
2023/03/12 22:13:36;;;;;;;7.83;5.87;;;2.70;99.90;;;;;;10149808;29;20242;-86
2023/03/12 22:18:41;;;;;;;12.70;6.60;;;2.80;99.90;;;;;;10166687;29;20255;-86
2023/03/12 22:23:46;;;;;;;14.30;6.57;;;2.80;99.90;;;;;;10163801;29;20194;-86
2023/03/12 22:28:51;;;;;;;11.40;6.90;;;2.70;99.90;;;;;;10164819;29;20222;-86
2023/03/12 22:33:55;;;;;;;8.00;4.93;;;2.70;99.90;;;;;;10159796;29;20249;-86
2023/03/12 22:38:58;;;;;;;10.87;5.27;;;2.70;99.90;;;;;;10160808;29;20225;-86
2023/03/12 22:44:04;;;;;;;6.57;4.33;;;2.60;99.90;;;;;;10169939;29;20201;-85
2023/03/12 22:49:06;;;;;;;7.50;4.97;;;2.60;99.90;;;;;;10124820;29;20197;-87
2023/03/12 22:54:10;;;;;;;5.77;4.07;;;2.80;99.90;;;;;;10151876;29;20269;-86
2023/03/12 22:59:13;;;;;;;7.43;4.80;;;2.90;99.90;;;;;;10167973;29;20196;-85
2023/03/12 23:04:16;;;;;;;8.20;6.03;;;3.00;99.90;;;;;;10153880;29;20234;-86
2023/03/12 23:09:18;;;;;;;12.87;6.90;;;2.80;99.90;;;;;;10147037;29;20218;-86
2023/03/12 23:14:21;;;;;;;11.17;6.37;;;2.70;99.90;;;;;;10141598;29;20217;-86
2023/03/12 23:19:24;;;;;;;9.43;5.53;;;2.70;99.90;;;;;;10141816;29;20269;-87
2023/03/12 23:24:31;;;;;;;8.17;6.23;;;2.60;99.90;;;;;;10162411;29;20234;-86
2023/03/12 23:29:34;;;;;;;9.17;5.53;;;2.50;99.90;;;;;;10147643;29;20205;-85
2023/03/12 23:34:37;;;;;;;8.00;5.73;;;2.40;99.90;;;;;;10141868;29;20262;-85
2023/03/12 23:39:40;;;;;;;9.67;7.13;;;2.30;99.90;;;;;;10109471;29;20194;-86
2023/03/12 23:44:55;;;;;;;11.63;7.13;;;2.30;99.90;;;;;;10122370;29;20213;-86
2023/03/12 23:49:58;;;;;;;9.20;6.20;;;2.30;99.90;;;;;;10128654;29;20222;-86
2023/03/12 23:55:01;;;;;;;8.77;6.87;;;2.30;99.90;;;;;;10136646;29;20225;-86
